createdAt,value
2023-04-16T00:00:07.061Z,40.65
2023-04-16T00:02:40.661Z,33.25
2023-04-16T00:05:08.674Z,39.70
2023-04-16T00:07:36.079Z,37.90
2023-04-16T00:10:03.354Z,33.95
2023-04-16T00:12:31.002Z,34.75
2023-04-16T00:14:58.259Z,32.67
2023-04-16T00:17:25.702Z,33.42
2023-04-16T00:19:53.248Z,28.50
2023-04-16T00:22:20.548Z,33.83
2023-04-16T00:24:47.675Z,30.62
2023-04-16T00:27:15.089Z,30.10
2023-04-16T00:29:42.546Z,27.90
2023-04-16T00:32:09.774Z,25.77
2023-04-16T00:34:37.217Z,23.08
2023-04-16T00:37:04.509Z,24.60
2023-04-16T00:39:32.240Z,27.73
2023-04-16T00:41:59.653Z,25.62
2023-04-16T00:44:26.805Z,21.33
2023-04-16T00:46:54.105Z,22.00
2023-04-16T00:49:21.634Z,21.55
2023-04-16T00:51:48.947Z,22.20
2023-04-16T00:54:16.116Z,23.45
2023-04-16T00:56:45.474Z,21.20
2023-04-16T00:59:15.557Z,19.50
2023-04-16T01:01:42.805Z,21.73
2023-04-16T01:04:10.550Z,19.67
2023-04-16T01:06:38.329Z,22.70
2023-04-16T01:09:05.982Z,17.23
2023-04-16T01:11:33.468Z,19.92
2023-04-16T01:14:00.723Z,18.75
2023-04-16T01:16:27.891Z,19.30
2023-04-16T01:18:55.410Z,15.70
2023-04-16T01:21:22.540Z,16.37
2023-04-16T01:23:49.704Z,18.90
2023-04-16T01:26:17.373Z,17.90
2023-04-16T01:28:44.538Z,17.90
2023-04-16T01:31:12.028Z,16.60
2023-04-16T01:33:40.436Z,21.20
2023-04-16T01:36:07.981Z,15.77
2023-04-16T01:38:35.620Z,15.43
2023-04-16T01:41:03.232Z,17.30
2023-04-16T01:43:30.414Z,17.15
2023-04-16T01:46:20.011Z,18.65
2023-04-16T01:48:48.600Z,15.35
2023-04-16T01:51:15.896Z,18.45
2023-04-16T01:53:43.156Z,15.18
2023-04-16T01:56:10.990Z,28.60
2023-04-16T01:58:38.722Z,26.65
2023-04-16T02:01:06.224Z,21.35
2023-04-16T02:03:34.596Z,26.40
2023-04-16T02:06:02.019Z,30.25
2023-04-16T02:08:29.364Z,22.30
2023-04-16T02:10:57.128Z,20.58
2023-04-16T02:13:26.262Z,24.17
2023-04-16T02:15:53.677Z,23.25
2023-04-16T02:18:21.543Z,25.92
2023-04-16T02:20:49.921Z,23.12
2023-04-16T02:23:17.793Z,28.48
2023-04-16T02:25:47.547Z,23.85
2023-04-16T02:28:16.490Z,21.48
2023-04-16T02:30:44.952Z,25.33
2023-04-16T02:33:13.005Z,25.70
2023-04-16T02:35:41.732Z,20.80
2023-04-16T02:38:09.028Z,23.00
2023-04-16T02:40:36.454Z,21.08
2023-04-16T02:43:04.022Z,20.60
2023-04-16T02:45:31.804Z,20.45
2023-04-16T02:48:00.022Z,21.48
2023-04-16T02:50:27.738Z,25.25
2023-04-16T02:52:54.961Z,21.35
2023-04-16T02:55:22.200Z,19.50
2023-04-16T02:57:49.776Z,18.95
2023-04-16T03:00:17.264Z,24.33
2023-04-16T03:02:44.594Z,21.23
2023-04-16T03:05:12.507Z,21.23
2023-04-16T03:07:40.823Z,18.33
2023-04-16T03:10:09.087Z,21.62
2023-04-16T03:12:36.657Z,17.92
2023-04-16T03:15:07.351Z,24.80
2023-04-16T03:17:34.628Z,21.67
2023-04-16T03:20:02.317Z,20.62
2023-04-16T03:22:30.312Z,18.83
2023-04-16T03:24:57.862Z,20.92
2023-04-16T03:27:25.464Z,21.20
2023-04-16T03:29:53.168Z,19.33
2023-04-16T03:32:20.564Z,22.20
2023-04-16T03:34:48.042Z,20.25
2023-04-16T03:37:15.525Z,16.23
2023-04-16T03:39:42.882Z,18.73
2023-04-16T03:42:11.223Z,15.57
2023-04-16T03:44:38.435Z,23.75
2023-04-16T03:47:05.955Z,18.15
2023-04-16T03:49:33.569Z,15.95
2023-04-16T03:52:01.009Z,19.27
2023-04-16T03:54:28.234Z,19.12
2023-04-16T03:56:57.187Z,21.33
2023-04-16T03:59:24.522Z,20.60
2023-04-16T04:01:51.793Z,16.73
2023-04-16T04:04:19.448Z,16.30
2023-04-16T04:06:47.198Z,18.02
2023-04-16T04:09:16.379Z,17.60
2023-04-16T04:11:44.010Z,20.67
2023-04-16T04:14:11.310Z,14.38
2023-04-16T04:16:39.457Z,15.73
2023-04-16T04:19:07.073Z,18.58
2023-04-16T04:21:34.677Z,20.15
2023-04-16T04:24:03.826Z,26.37
2023-04-16T04:26:33.989Z,21.95
2023-04-16T04:29:01.145Z,25.08
2023-04-16T04:31:28.650Z,20.30
2023-04-16T04:33:56.412Z,15.25
2023-04-16T04:36:23.719Z,17.77
2023-04-16T04:38:51.802Z,15.30
2023-04-16T04:41:21.991Z,17.92
2023-04-16T04:43:49.199Z,15.95
2023-04-16T04:46:17.277Z,18.50
2023-04-16T04:48:45.297Z,17.87
2023-04-16T04:51:12.509Z,16.50
2023-04-16T04:53:41.156Z,18.65
2023-04-16T04:56:12.646Z,16.05
2023-04-16T04:58:41.477Z,22.35
2023-04-16T05:01:09.205Z,14.70
2023-04-16T05:03:36.695Z,15.35
2023-04-16T05:06:04.223Z,23.15
2023-04-16T05:08:31.676Z,19.83
2023-04-16T05:10:58.929Z,20.95
2023-04-16T05:13:26.263Z,15.98
2023-04-16T05:15:53.753Z,20.30
2023-04-16T05:18:21.281Z,19.37
2023-04-16T05:20:48.511Z,19.77
2023-04-16T05:23:16.118Z,19.12
2023-04-16T05:25:43.467Z,20.80
2023-04-16T05:28:10.834Z,22.90
2023-04-16T05:30:38.414Z,24.17
2023-04-16T05:33:05.860Z,29.63
2023-04-16T05:35:33.198Z,22.30
2023-04-16T05:38:00.929Z,15.65
2023-04-16T05:40:28.218Z,16.52
2023-04-16T05:42:55.362Z,25.00
2023-04-16T05:45:23.016Z,17.60
2023-04-16T05:47:50.286Z,22.92
2023-04-16T05:50:17.518Z,19.77
2023-04-16T05:52:44.982Z,16.58
2023-04-16T05:55:12.431Z,18.75
2023-04-16T05:57:39.701Z,19.23
2023-04-16T06:00:08.006Z,18.50
2023-04-16T06:02:39.511Z,16.65
2023-04-16T06:05:07.478Z,18.35
2023-04-16T06:07:34.759Z,18.50
2023-04-16T06:10:02.032Z,16.02
2023-04-16T06:12:29.540Z,12.75
2023-04-16T06:14:57.016Z,12.60
2023-04-16T06:17:24.285Z,19.77
2023-04-16T06:19:51.948Z,10.95
2023-04-16T06:22:19.235Z,11.68
2023-04-16T06:24:46.734Z,10.30
2023-04-16T06:27:14.330Z,8.63
2023-04-16T06:29:42.018Z,10.80
2023-04-16T06:32:09.357Z,7.40
2023-04-16T06:34:38.600Z,8.93
2023-04-16T06:37:07.201Z,6.50
2023-04-16T06:39:36.611Z,10.50
2023-04-16T06:42:04.362Z,8.57
2023-04-16T06:44:31.883Z,9.68
2023-04-16T06:46:59.463Z,7.80
2023-04-16T06:49:26.666Z,8.10
2023-04-16T06:51:53.935Z,8.35
2023-04-16T06:54:21.412Z,8.15
2023-04-16T06:56:48.652Z,9.20
2023-04-16T06:59:15.842Z,6.45
2023-04-16T07:01:43.575Z,7.72
2023-04-16T07:04:11.999Z,7.53
2023-04-16T07:06:39.263Z,10.73
2023-04-16T07:09:06.913Z,8.57
2023-04-16T07:11:34.569Z,8.32
2023-04-16T07:14:02.153Z,12.00
2023-04-16T07:16:30.916Z,11.23
2023-04-16T07:18:58.164Z,8.93
2023-04-16T07:21:26.148Z,12.15
2023-04-16T07:23:53.974Z,8.88
2023-04-16T07:26:21.226Z,5.90
2023-04-16T07:28:48.523Z,7.57
2023-04-16T07:31:16.288Z,6.62
2023-04-16T07:33:43.486Z,5.72
2023-04-16T07:36:11.105Z,10.82
2023-04-16T07:38:38.676Z,6.72
2023-04-16T07:41:06.164Z,6.32
2023-04-16T07:43:33.499Z,5.55
2023-04-16T07:46:01.116Z,9.55
2023-04-16T07:48:28.395Z,10.00
2023-04-16T07:50:55.752Z,6.07
2023-04-16T07:53:34.791Z,6.30
2023-04-16T07:56:01.953Z,6.22
2023-04-16T07:58:29.429Z,8.38
2023-04-16T08:00:56.750Z,7.28
2023-04-16T08:03:24.582Z,10.30
2023-04-16T08:05:52.092Z,5.78
2023-04-16T08:08:19.360Z,4.70
2023-04-16T08:10:49.513Z,11.93
2023-04-16T08:13:16.854Z,5.22
2023-04-16T08:15:44.248Z,12.93
2023-04-16T08:18:16.303Z,6.40
2023-04-16T08:20:43.624Z,8.75
2023-04-16T08:23:10.880Z,7.03
2023-04-16T08:25:38.313Z,5.05
2023-04-16T08:28:07.925Z,5.12
2023-04-16T08:30:35.353Z,14.47
2023-04-16T08:36:33.880Z,4.60
2023-04-16T08:42:37.090Z,5.85
2023-04-16T08:45:08.745Z,8.70
2023-04-16T08:47:37.378Z,4.72
2023-04-16T08:50:05.880Z,8.52
2023-04-16T08:52:34.194Z,10.23
2023-04-16T08:55:08.002Z,4.53
2023-04-16T08:58:02.034Z,7.80
2023-04-16T09:00:29.954Z,5.93
2023-04-16T09:02:58.282Z,7.95
2023-04-16T09:05:26.442Z,5.28
2023-04-16T09:07:56.711Z,10.48
2023-04-16T09:12:52.269Z,6.22
2023-04-16T09:15:24.530Z,5.75
2023-04-16T09:18:03.703Z,6.28
2023-04-16T09:23:25.282Z,7.55
2023-04-16T09:25:59.474Z,4.47
2023-04-16T09:28:45.425Z,6.80
2023-04-16T09:31:15.238Z,4.28
2023-04-16T09:37:19.558Z,6.05
2023-04-16T09:40:04.108Z,5.87
2023-04-16T09:42:33.133Z,4.75
2023-04-16T09:45:03.381Z,5.60
2023-04-16T09:47:46.055Z,8.32
2023-04-16T09:50:19.095Z,5.60
2023-04-16T09:52:50.547Z,5.85
2023-04-16T09:55:23.858Z,7.18
2023-04-16T09:57:59.524Z,10.68
2023-04-16T10:00:29.590Z,7.72
2023-04-16T10:03:07.473Z,4.37
2023-04-16T10:05:35.705Z,5.05
2023-04-16T10:08:03.446Z,4.93
2023-04-16T10:10:30.735Z,7.97
2023-04-16T10:12:58.559Z,13.30
2023-04-16T10:15:26.151Z,4.70
2023-04-16T10:17:54.244Z,10.50
2023-04-16T10:20:23.020Z,11.63
2023-04-16T10:22:50.753Z,5.80
2023-04-16T10:25:18.355Z,8.95
2023-04-16T10:27:46.037Z,5.28
2023-04-16T10:30:14.396Z,5.15
2023-04-16T10:32:42.220Z,4.87
2023-04-16T10:35:10.450Z,5.57
2023-04-16T10:37:41.279Z,5.40
2023-04-16T10:40:26.242Z,4.62
2023-04-16T10:42:57.368Z,5.55
2023-04-16T10:45:38.502Z,4.22
2023-04-16T10:48:10.115Z,5.60
2023-04-16T10:50:37.703Z,3.92
2023-04-16T10:53:21.888Z,3.72
2023-04-16T10:56:05.071Z,8.15
2023-04-16T10:58:35.976Z,5.65
2023-04-16T11:01:13.920Z,6.18
2023-04-16T11:07:24.431Z,3.05
2023-04-16T11:09:53.112Z,11.35
2023-04-16T11:12:28.421Z,4.18
2023-04-16T11:15:02.265Z,5.20
2023-04-16T11:17:34.454Z,5.03
2023-04-16T11:20:02.189Z,5.28
2023-04-16T11:22:29.352Z,3.72
2023-04-16T11:24:57.361Z,3.35
2023-04-16T11:27:29.679Z,5.47
2023-04-16T11:30:09.610Z,6.32
2023-04-16T11:32:38.892Z,3.83
2023-04-16T11:35:17.347Z,5.03
2023-04-16T11:37:45.543Z,7.07
2023-04-16T11:40:13.122Z,2.85
2023-04-16T11:42:42.423Z,1.77
2023-04-16T11:45:12.240Z,3.55
2023-04-16T11:47:52.863Z,4.68
2023-04-16T11:50:24.243Z,2.83
2023-04-16T11:52:54.144Z,4.20
2023-04-16T11:55:22.424Z,7.55
2023-04-16T11:57:50.253Z,8.20
2023-04-16T12:00:19.306Z,6.75
2023-04-16T12:02:54.027Z,4.25
2023-04-16T12:05:35.154Z,3.67
2023-04-16T12:08:04.817Z,2.05
2023-04-16T12:10:36.909Z,1.65
2023-04-16T12:13:15.337Z,5.05
2023-04-16T12:15:49.333Z,7.90
2023-04-16T12:18:18.016Z,5.28
2023-04-16T12:20:46.283Z,6.62
2023-04-16T12:23:34.148Z,3.60
2023-04-16T12:26:10.891Z,4.85
2023-04-16T12:28:39.534Z,4.25
2023-04-16T12:31:07.471Z,4.78
2023-04-16T12:33:35.056Z,2.83
2023-04-16T12:36:17.537Z,4.70
2023-04-16T12:38:45.078Z,6.47
2023-04-16T12:41:12.573Z,3.00
2023-04-16T12:43:40.814Z,7.97
2023-04-16T12:46:08.457Z,4.35
2023-04-16T12:48:36.766Z,3.03
2023-04-16T12:51:04.587Z,2.50
2023-04-16T12:53:32.147Z,4.53
2023-04-16T12:55:59.663Z,2.95
2023-04-16T12:58:29.439Z,5.12
2023-04-16T13:00:56.999Z,1.58
2023-04-16T13:03:24.693Z,4.00
2023-04-16T13:05:52.120Z,7.07
2023-04-16T13:08:19.753Z,2.25
2023-04-16T13:10:47.149Z,4.45
2023-04-16T13:13:16.642Z,1.75
2023-04-16T13:15:44.152Z,3.15
2023-04-16T13:18:12.532Z,6.60
2023-04-16T13:20:39.687Z,4.57
2023-04-16T13:23:07.229Z,4.00
2023-04-16T13:25:34.658Z,2.87
2023-04-16T13:28:02.181Z,4.72
2023-04-16T13:33:59.967Z,2.30
2023-04-16T13:36:27.837Z,2.53
2023-04-16T13:38:57.660Z,2.37
2023-04-16T13:41:28.451Z,3.58
2023-04-16T13:43:56.274Z,1.77
2023-04-16T13:46:23.749Z,4.15
2023-04-16T13:48:51.768Z,3.95
2023-04-16T13:51:19.372Z,4.22
2023-04-16T13:53:46.990Z,2.25
2023-04-16T13:59:46.088Z,4.62
2023-04-16T14:02:14.533Z,4.22
2023-04-16T14:04:44.886Z,1.77
2023-04-16T14:07:12.242Z,13.75
2023-04-16T14:13:09.891Z,2.92
2023-04-16T14:15:37.771Z,3.17
2023-04-16T14:18:05.362Z,4.72
2023-04-16T14:20:33.570Z,2.37
2023-04-16T14:23:01.675Z,1.65
2023-04-16T14:25:29.346Z,2.83
2023-04-16T14:28:01.563Z,2.72
2023-04-16T14:30:30.762Z,3.22
2023-04-16T14:32:59.433Z,4.62
2023-04-16T14:35:27.757Z,2.75
2023-04-16T14:37:56.073Z,5.57
2023-04-16T14:40:23.544Z,2.17
2023-04-16T14:42:51.272Z,1.60
2023-04-16T14:45:19.398Z,3.05
2023-04-16T14:47:54.210Z,6.97
2023-04-16T14:50:21.713Z,2.28
2023-04-16T14:52:49.250Z,4.53
2023-04-16T14:55:20.116Z,6.22
2023-04-16T14:57:47.809Z,3.33
2023-04-16T15:03:47.912Z,7.55
2023-04-16T15:06:17.294Z,4.75
2023-04-16T15:08:45.025Z,6.18
2023-04-16T15:11:12.471Z,6.40
2023-04-16T15:13:40.084Z,13.62
2023-04-16T15:16:07.757Z,5.12
2023-04-16T15:18:36.493Z,7.93
2023-04-16T15:21:04.670Z,6.07
2023-04-16T15:27:02.910Z,3.97
2023-04-16T15:33:01.568Z,5.22
2023-04-16T15:35:30.022Z,3.85
2023-04-16T15:37:57.496Z,4.30
2023-04-16T15:40:25.263Z,3.03
2023-04-16T15:43:00.967Z,6.45
2023-04-16T15:49:11.687Z,3.53
2023-04-16T15:55:27.062Z,4.80
2023-04-16T15:57:55.725Z,6.72
2023-04-16T16:06:35.444Z,7.65
2023-04-16T16:09:03.890Z,2.30
2023-04-16T16:11:33.003Z,3.90
2023-04-16T16:14:01.644Z,4.18
2023-04-16T16:16:30.339Z,4.15
2023-04-16T16:18:57.875Z,33.90
2023-04-16T16:21:26.904Z,3.08
2023-04-16T16:23:55.479Z,11.80
2023-04-16T16:29:52.925Z,3.67
2023-04-16T16:32:22.025Z,6.00
2023-04-16T16:34:50.236Z,4.12
2023-04-16T16:37:18.927Z,3.45
2023-04-16T16:39:49.458Z,2.80
2023-04-16T16:42:19.472Z,3.37
2023-04-16T16:44:49.289Z,3.03
2023-04-16T16:47:19.107Z,8.18
2023-04-16T16:56:48.422Z,4.53
2023-04-16T16:59:16.530Z,4.05
2023-04-16T17:12:02.998Z,10.35
2023-04-16T17:14:33.412Z,2.42
2023-04-16T17:17:01.363Z,6.18
2023-04-16T17:19:29.903Z,7.25
2023-04-16T17:22:00.434Z,5.75
2023-04-16T17:24:29.853Z,4.90
2023-04-16T17:26:59.181Z,5.25
2023-04-16T17:29:27.811Z,8.23
2023-04-16T17:31:56.272Z,5.25
2023-04-16T17:41:07.047Z,23.52
2023-04-16T17:59:00.053Z,6.97
2023-04-16T18:01:58.241Z,4.00
2023-04-16T18:05:06.464Z,5.30
2023-04-16T18:07:37.566Z,6.30
2023-04-16T18:10:07.169Z,5.15
2023-04-16T18:12:36.198Z,15.02
2023-04-16T18:15:04.758Z,6.55
2023-04-16T18:17:32.738Z,6.53
2023-04-16T18:27:06.866Z,6.97
2023-04-16T18:29:35.535Z,6.50
2023-04-16T18:32:12.300Z,4.43
2023-04-16T18:34:47.636Z,5.90
2023-04-16T18:37:19.045Z,9.05
2023-04-16T18:39:47.877Z,5.57
2023-04-16T18:42:16.187Z,6.32
2023-04-16T18:44:44.601Z,5.87
2023-04-16T18:47:16.773Z,7.65
2023-04-16T18:49:45.025Z,4.93
2023-04-16T18:52:14.600Z,4.30
2023-04-16T18:54:45.102Z,9.40
2023-04-16T18:57:15.120Z,4.25
2023-04-16T18:59:43.272Z,5.50
2023-04-16T19:02:11.903Z,9.32
2023-04-16T19:04:41.472Z,11.40
2023-04-16T19:07:10.077Z,10.77
2023-04-16T19:09:37.988Z,6.70
2023-04-16T19:12:07.182Z,6.82
2023-04-16T19:14:37.283Z,8.73
2023-04-16T19:22:29.598Z,5.15
2023-04-16T19:28:31.766Z,9.10
2023-04-16T19:31:09.918Z,5.15
2023-04-16T19:33:39.125Z,5.57
2023-04-16T19:36:08.155Z,7.30
2023-04-16T19:38:58.291Z,3.12
2023-04-16T19:41:29.461Z,10.38
2023-04-16T19:43:59.396Z,5.68
2023-04-16T19:46:28.431Z,5.53
2023-04-16T19:48:59.617Z,5.22
2023-04-16T19:57:27.359Z,3.55
2023-04-16T20:03:25.267Z,17.97
2023-04-16T20:05:53.509Z,24.65
2023-04-16T20:08:22.695Z,10.38
2023-04-16T20:10:50.406Z,9.63
2023-04-16T20:16:49.135Z,4.50
2023-04-16T20:19:19.554Z,6.07
2023-04-16T20:21:52.145Z,6.00
2023-04-16T20:26:46.982Z,12.35
2023-04-16T20:32:45.418Z,11.30
2023-04-16T20:35:13.219Z,4.30
2023-04-16T20:41:12.249Z,16.23
2023-04-16T20:47:17.758Z,13.45
2023-04-16T20:49:46.782Z,8.05
2023-04-16T20:52:15.098Z,7.03
2023-04-16T20:54:42.582Z,8.48
2023-04-16T20:57:10.365Z,16.83
2023-04-16T20:59:37.823Z,9.02
2023-04-16T21:02:05.072Z,6.85
2023-04-16T21:04:32.784Z,4.45
2023-04-16T21:07:03.195Z,4.75
2023-04-16T21:09:31.396Z,9.43
2023-04-16T21:11:58.864Z,5.37
2023-04-16T21:14:26.021Z,6.65
2023-04-16T21:16:54.947Z,5.87
2023-04-16T21:19:22.577Z,7.65
2023-04-16T21:21:49.907Z,4.30
2023-04-16T21:24:17.189Z,4.75
2023-04-16T21:26:44.725Z,7.78
2023-04-16T21:29:12.262Z,3.60
2023-04-16T21:31:39.755Z,3.10
2023-04-16T21:34:07.376Z,3.65
2023-04-16T21:36:35.155Z,5.10
2023-04-16T21:39:02.423Z,4.30
2023-04-16T21:41:29.889Z,3.72
2023-04-16T21:43:57.056Z,3.78
2023-04-16T21:46:25.478Z,4.00
2023-04-16T21:48:53.777Z,3.12
2023-04-16T21:51:29.833Z,3.60
2023-04-16T21:53:57.282Z,3.67
2023-04-16T22:03:00.306Z,5.22
2023-04-16T22:05:28.084Z,3.47
2023-04-16T22:07:55.789Z,2.42
2023-04-16T22:10:22.998Z,3.10
2023-04-16T22:12:53.717Z,3.62
2023-04-16T22:15:21.146Z,3.37
2023-04-16T22:17:48.569Z,2.45
2023-04-16T22:20:16.604Z,3.10
2023-04-16T22:22:44.099Z,2.22
2023-04-16T22:25:11.572Z,2.25
2023-04-16T22:27:39.032Z,5.22
2023-04-16T22:30:07.619Z,3.55
2023-04-16T22:32:34.890Z,2.05
2023-04-16T22:35:03.228Z,2.20
2023-04-16T22:37:30.448Z,2.33
2023-04-16T22:39:57.541Z,3.05
2023-04-16T22:42:24.942Z,2.42
2023-04-16T22:44:52.162Z,2.83
2023-04-16T22:47:19.285Z,3.10
2023-04-16T22:49:47.738Z,2.28
2023-04-16T22:52:14.853Z,2.28
2023-04-16T22:54:41.896Z,2.35
2023-04-16T22:57:09.310Z,2.22
2023-04-16T22:59:36.532Z,2.40
2023-04-16T23:02:03.640Z,2.72
2023-04-16T23:04:31.089Z,2.67
2023-04-16T23:06:58.350Z,2.15
2023-04-16T23:09:25.665Z,2.83
2023-04-16T23:11:53.272Z,3.92
2023-04-16T23:14:21.415Z,2.95
2023-04-16T23:16:48.703Z,2.35
2023-04-16T23:19:16.163Z,5.85
2023-04-16T23:21:43.325Z,3.70
2023-04-16T23:24:10.527Z,3.55
2023-04-16T23:26:37.973Z,2.42
2023-04-16T23:29:05.110Z,2.72
2023-04-16T23:31:32.355Z,3.67
2023-04-16T23:33:59.804Z,2.90
2023-04-16T23:36:27.591Z,2.60
2023-04-16T23:38:57.347Z,4.07
2023-04-16T23:41:24.729Z,5.35
2023-04-16T23:43:51.888Z,1.90
2023-04-16T23:46:18.997Z,4.00
2023-04-16T23:48:46.401Z,3.22
2023-04-16T23:51:13.568Z,3.35
2023-04-16T23:53:41.011Z,3.65
2023-04-16T23:56:11.192Z,2.83
2023-04-16T23:58:38.549Z,3.75
